Thunderstorms From: 26-05-2018 05:06 Until: 27-05-2018 05:00 warning for: Thunderstorms Level: Yellow info button

Although rather usual in this region, locally or potentially dangerous phenomena are expected. (such as local winds, summer thunderstorms, rising streams or high waves) Be aware and pay attention to the latest weather updates, especially if you carry out activities exposed to weather or close to a stream or shoreline. 


Meteo18 Weather Cam more information Meteo18 Weather Cam


warning for Thunderstorms more information blitzortung!


Rain radar more information rain snow radar


Visit our other weather sites:

Template documentation
and downloads

And another site



Weather Underground History page Text

Daily Summary for December 10, 2017 Units:  Metric    English   Both
« Previous Day
Next Day »
Daily Weekly Monthly Yearly Custom
  High: Low: Average:
Temperature: -17.8 °C -17.6 °C -14.4 °C
Dew Point: -17.8 °C -18.3 °C -15.2 °C
Humidity: Humidity % 75 % 90 %
Wind Speed: 0 km/h 0 km/h 22 km/h
Wind Gust: 0 km/h - -
Wind:- - SSW
Pressure: 0 hPa 33375.8 hPa -
Precipitation: 523.24 mm    
Historical Graphs
 
 
Tabular Data for December 10, 2017
Time Temperature Dew Point Pressure Wind Wind Speed Wind Gust Humidity Rainfall Rate (Hourly)
-17.8 °C -17.8 °C 0 hPa Calm     Humidity % 0 mm
00:02 -17.4 °C -17.9 °C 34303.6 hPa South 2.6 km/h 5.1 km/h 94 % 0 mm
00:07 -17.4 °C -17.9 °C 34303.6 hPa Calm   5.1 km/h 93 % 0 mm
00:12 -17.4 °C -17.9 °C 34303.6 hPa Calm   5.1 km/h 93 % 0 mm
00:17 -17.3 °C -17.9 °C 34293.4 hPa Calm   12.9 km/h 93 % 0 mm
00:22 -17.3 °C -17.9 °C 34293.4 hPa SSW 2.6 km/h 12.9 km/h 93 % 0 mm
00:27 -17.3 °C -17.9 °C 34293.4 hPa SSW 2.6 km/h 12.9 km/h 92 % 0 mm
00:42 -17.3 °C -17.9 °C 34279.9 hPa SW 5.1 km/h 7.7 km/h 92 % 0 mm
00:52 -17.3 °C -18 °C 34269.7 hPa SSE 2.6 km/h 7.7 km/h 92 % 0 mm
01:07 -17.3 °C -18 °C 34246 hPa SW 2.6 km/h 10.3 km/h 91 % 0 mm
01:12 -17.3 °C -18 °C 34246 hPa Calm   7.7 km/h 91 % 0 mm
01:17 -17.3 °C -18.1 °C 34235.8 hPa Calm   5.1 km/h 91 % 0 mm
01:22 -17.3 °C -18 °C 34235.8 hPa SSE 2.6 km/h 7.7 km/h 91 % 0 mm
01:32 -17.3 °C -18.1 °C 34212.1 hPa Calm   7.7 km/h 90 % 0 mm
01:37 -17.3 °C -18.1 °C 34222.3 hPa Calm   7.7 km/h 90 % 0 mm
01:42 -17.3 °C -18.1 °C 34198.6 hPa SE 2.6 km/h 7.7 km/h 90 % 0 mm
01:47 -17.3 °C -18.1 °C 34188.4 hPa Calm   10.3 km/h 90 % 0 mm
01:52 -17.3 °C -18.1 °C 34198.6 hPa Calm   12.9 km/h 90 % 0 mm
01:57 -17.3 °C -18.1 °C 34188.4 hPa South 5.1 km/h 12.9 km/h 90 % 0 mm
02:02 -17.3 °C -18.1 °C 34178.3 hPa Calm   15.6 km/h 90 % 0 mm
02:12 -17.2 °C -18.1 °C 34178.3 hPa SSE 5.1 km/h 15.6 km/h 89 % 0 mm
02:22 -17.2 °C -18.1 °C 34154.6 hPa South 5.1 km/h 23.3 km/h 89 % 0 mm
02:32 -17.1 °C -18.1 °C 34144.4 hPa SSE 5.1 km/h 33.6 km/h 88 % 0 mm
02:37 -17.1 °C -18.1 °C 34130.9 hPa South 7.7 km/h 33.6 km/h 88 % 0 mm
02:42 -17.1 °C -18.1 °C 34130.9 hPa SE 15.6 km/h 33.6 km/h 88 % 0 mm
02:47 -17.1 °C -18.1 °C 34120.7 hPa SSE 7.7 km/h 20.8 km/h 88 % 0 mm
02:52 -17.1 °C -18.1 °C 34120.7 hPa SSE 10.3 km/h 18.2 km/h 88 % 0 mm
03:02 -17.1 °C -18.1 °C 34107.2 hPa SE 2.6 km/h 23.3 km/h 87 % 0 mm
03:12 -17.1 °C -18.1 °C 34097 hPa SE 7.7 km/h 20.8 km/h 87 % 0 mm
03:22 -17 °C -18.2 °C 34086.9 hPa SSE 5.1 km/h 28.5 km/h 86 % 0 mm
03:27 -17 °C -18.2 °C 34086.9 hPa SSE 5.1 km/h 28.5 km/h 86 % 0 mm
03:37 -17.1 °C -18.1 °C 34073.3 hPa SE 7.7 km/h 28.5 km/h 87 % 0 mm
03:52 -17.3 °C -18.2 °C 34049.6 hPa SE 5.1 km/h 28.5 km/h 89 % 0 mm
03:57 -17.3 °C -18.2 °C 34049.6 hPa SSW 7.7 km/h 28.5 km/h 90 % 0 mm
04:02 -17.4 °C -18.2 °C 34039.5 hPa SE 5.1 km/h 28.5 km/h 90 % 0 mm
04:07 -17.4 °C -18.3 °C 34015.8 hPa ESE 23.3 km/h 25.9 km/h 90 % 0 mm
04:12 -17.4 °C -18.2 °C 34005.6 hPa SE 7.7 km/h 25.9 km/h 91 % 0 mm
04:22 -17.6 °C -18.2 °C 33992.1 hPa SE 7.7 km/h 28.5 km/h 92 % 0 mm
04:27 -17.6 °C -18.2 °C 33981.9 hPa ESE 7.7 km/h 28.5 km/h 92 % 0 mm
04:32 -17.6 °C -18.2 °C 33981.9 hPa SSE 5.1 km/h 23.3 km/h 92 % 0 mm
04:42 -17.6 °C -18.1 °C 33958.2 hPa SSE 7.7 km/h 20.8 km/h 93 % 0 mm
04:47 -17.6 °C -18.1 °C 33958.2 hPa Calm   20.8 km/h 93 % 0 mm
04:52 -17.6 °C -18.1 °C 33948 hPa SSE 2.6 km/h 20.8 km/h 93 % 0 mm
04:57 -17.6 °C -18.1 °C 33948 hPa South 10.3 km/h 18.2 km/h 94 % 0 mm
05:02 -17.6 °C -18.1 °C 33937.9 hPa SE 18.2 km/h 18.2 km/h 94 % 0 mm
05:12 -17.6 °C -17.9 °C 33914.2 hPa SE 10.3 km/h 25.9 km/h 95 % 12.7 mm
05:27 -17.6 °C -17.9 °C 33900.6 hPa SSE 7.7 km/h 28.5 km/h 95 % 25.4 mm
05:37 -17.5 °C -17.9 °C 33880.3 hPa SE 7.7 km/h 28.5 km/h 95 % 33.02 mm
05:42 -17.4 °C -17.8 °C 33866.8 hPa SE 15.6 km/h 28.5 km/h 95 % 38.1 mm
05:47 -17.4 °C -17.8 °C 33856.6 hPa South 10.3 km/h 28.5 km/h 96 % 38.1 mm
05:52 -17.4 °C -17.8 °C 33856.6 hPa SE 25.9 km/h 28.5 km/h 96 % 38.1 mm
06:17 -17.3 °C -17.6 °C 33822.8 hPa SSE 10.3 km/h 31.1 km/h 96 % 45.72 mm
06:32 -17.2 °C -17.5 °C 33809.2 hPa South 10.3 km/h 33.6 km/h 96 % 45.72 mm
06:42 -17.1 °C -17.4 °C 33788.9 hPa SSE 7.7 km/h 33.6 km/h 96 % 50.8 mm
06:52 -17.1 °C -17.4 °C 33775.4 hPa South 15.6 km/h 31.1 km/h 96 % 58.42 mm
07:02 -17.1 °C -17.4 °C 33765.2 hPa SSW 5.1 km/h 28.5 km/h 96 % 63.5 mm
07:07 -17 °C -17.3 °C 33751.6 hPa SSW 15.6 km/h 25.9 km/h 96 % 71.12 mm
07:12 -17 °C -17.3 °C 33751.6 hPa SSE 7.7 km/h 25.9 km/h 96 % 71.12 mm
07:17 -17 °C -17.3 °C 33751.6 hPa SSE 5.1 km/h 28.5 km/h 96 % 76.2 mm
07:22 -16.9 °C -17.2 °C 33741.5 hPa SSE 10.3 km/h 28.5 km/h 97 % 76.2 mm
07:32 -16.9 °C -17.1 °C 33731.3 hPa South 7.7 km/h 28.5 km/h 97 % 83.82 mm
07:42 -16.8 °C -17.1 °C 33707.6 hPa SSE 12.9 km/h 31.1 km/h 97 % 83.82 mm
07:47 -16.8 °C -17 °C 33707.6 hPa South 12.9 km/h 33.6 km/h 97 % 83.82 mm
07:52 -16.8 °C -17 °C 33694.1 hPa SSW 10.3 km/h 33.6 km/h 97 % 91.44 mm
08:02 -16.7 °C -16.9 °C 33683.9 hPa SSW 7.7 km/h 28.5 km/h 97 % 91.44 mm
08:12 -16.6 °C -16.8 °C 33673.8 hPa SSE 10.3 km/h 25.9 km/h 97 % 91.44 mm
08:17 -16.6 °C -16.8 °C 33660.2 hPa SSW 5.1 km/h 31.1 km/h 97 % 91.44 mm
08:22 -16.5 °C -16.7 °C 33660.2 hPa SSE 5.1 km/h 31.1 km/h 97 % 104.14 mm
08:27 -16.5 °C -16.7 °C 33660.2 hPa South 5.1 km/h 31.1 km/h 97 % 104.14 mm
08:32 -16.4 °C -16.7 °C 33650.1 hPa SSE 7.7 km/h 31.1 km/h 97 % 104.14 mm
08:42 -16.3 °C -16.5 °C 33639.9 hPa SSE 5.1 km/h 20.8 km/h 97 % 104.14 mm
08:47 -16.2 °C -16.4 °C 33626.4 hPa SSE 2.6 km/h 20.8 km/h 97 % 91.44 mm
08:52 -16.2 °C -16.4 °C 33626.4 hPa SSE 2.6 km/h 20.8 km/h 97 % 91.44 mm
08:57 -15.9 °C -16.2 °C 33616.2 hPa South 5.1 km/h 20.8 km/h 97 % 83.82 mm
09:02 -15.7 °C -15.9 °C 33616.2 hPa South 5.1 km/h 20.8 km/h 98 % 83.82 mm
09:12 -15.1 °C -15.2 °C 33602.7 hPa SSW 12.9 km/h 15.6 km/h 98 % 76.2 mm
09:17 -14.6 °C -14.7 °C 33592.5 hPa SW 23.3 km/h 31.1 km/h 98 % 63.5 mm
09:32 -13.7 °C -13.9 °C 33568.8 hPa SSW 25.9 km/h 41.4 km/h 98 % 50.8 mm
09:52 -13.3 °C -13.4 °C 33558.6 hPa SW 36.2 km/h 59.5 km/h 98 % 58.42 mm
09:57 -13.2 °C -13.3 °C 33545.1 hPa SW 46.7 km/h 57 km/h 98 % 58.42 mm
10:02 -13.1 °C -13.3 °C 33558.6 hPa West 18.2 km/h 57 km/h 98 % 58.42 mm
10:12 -12.9 °C -13.1 °C 33534.9 hPa SW 33.6 km/h 49.2 km/h 98 % 76.2 mm
10:17 -12.9 °C -13.2 °C 33534.9 hPa SW 44.1 km/h 69.8 km/h 97 % 76.2 mm
10:27 -12.7 °C -13 °C 33534.9 hPa WSW 49.2 km/h 69.8 km/h 97 % 83.82 mm
10:32 -12.7 °C -13 °C 33534.9 hPa WSW 33.6 km/h 69.8 km/h 96 % 83.82 mm
10:37 -12.7 °C -13 °C 33545.1 hPa WSW 44.1 km/h 72.6 km/h 96 % 104.14 mm
10:42 -12.6 °C -12.9 °C 33558.6 hPa SW 44.1 km/h 72.6 km/h 96 % 109.22 mm
10:52 -12.4 °C -12.7 °C 33545.1 hPa West 25.9 km/h 62.1 km/h 96 % 121.92 mm
11:12 -12.1 °C -12.5 °C 33524.8 hPa SW 36.2 km/h 72.6 km/h 95 % 109.22 mm
11:22 -11.9 °C -12.4 °C 33534.9 hPa SW 46.7 km/h 64.7 km/h 95 % 91.44 mm
11:27 -11.9 °C -12.3 °C 33534.9 hPa WSW 31.1 km/h 69.8 km/h 95 % 83.82 mm
11:32 -11.8 °C -12.2 °C 33534.9 hPa WSW 49.2 km/h 69.8 km/h 95 % 83.82 mm
11:37 -11.7 °C -12.2 °C 33534.9 hPa WSW 31.1 km/h 69.8 km/h 94 % 58.42 mm
11:42 -11.6 °C -12.1 °C 33524.8 hPa WSW 59.5 km/h 69.8 km/h 94 % 50.8 mm
11:47 -11.6 °C -12.2 °C 33524.8 hPa WSW 44.1 km/h 75.2 km/h 93 % 33.02 mm
11:57 -11.4 °C -12.2 °C 33534.9 hPa WSW 46.7 km/h 75.2 km/h 92 % 12.7 mm
12:02 -11.4 °C -12.2 °C 33534.9 hPa WSW 33.6 km/h 75.2 km/h 91 % 12.7 mm
12:12 -11.4 °C -12.3 °C 33524.8 hPa SW 46.7 km/h 95.8 km/h 90 % 7.62 mm
12:17 -11.4 °C -12.4 °C 33534.9 hPa WNW 46.7 km/h 75.2 km/h 89 % 7.62 mm
12:22 -11.3 °C -12.6 °C 33534.9 hPa WSW 49.2 km/h 77.7 km/h 86 % 7.62 mm
12:32 -11.4 °C -12.9 °C 33545.1 hPa West 51.8 km/h 77.7 km/h 83 % 7.62 mm
12:37 -11.4 °C -12.9 °C 33558.6 hPa WSW 20.8 km/h 85.5 km/h 84 % 0 mm
12:52 -11.4 °C -13.8 °C 33568.8 hPa West 72.6 km/h 72.6 km/h 75 % 0 mm
13:07 -11.5 °C -13.4 °C 33568.8 hPa WSW 31.1 km/h 82.9 km/h 79 % 0 mm
13:12 -11.6 °C -13.3 °C 33558.6 hPa WSW 44.1 km/h 82.9 km/h 81 % 0 mm
13:17 -11.6 °C -13.3 °C 33558.6 hPa WSW 38.8 km/h 62.1 km/h 81 % 0 mm
13:22 -11.6 °C -13.4 °C 33558.6 hPa WSW 23.3 km/h 62.1 km/h 80 % 0 mm
13:27 -11.6 °C -13.6 °C 33568.8 hPa WNW 36.2 km/h 67.3 km/h 79 % 0 mm
13:32 -11.7 °C -13.5 °C 33568.8 hPa SW 15.6 km/h 67.3 km/h 80 % 0 mm
13:47 -11.8 °C -13.7 °C 33568.8 hPa West 31.1 km/h 82.9 km/h 79 % 0 mm
13:52 -11.8 °C -13.8 °C 33568.8 hPa West 31.1 km/h 72.6 km/h 78 % 0 mm
14:02 -11.8 °C -13.8 °C 33568.8 hPa WSW 54.4 km/h 62.1 km/h 78 % 0 mm
14:07 -11.8 °C -13.8 °C 33568.8 hPa WSW 23.3 km/h 62.1 km/h 79 % 0 mm
14:17 -11.8 °C -13.9 °C 33568.8 hPa West 23.3 km/h 67.3 km/h 78 % 0 mm
14:22 -11.8 °C -13.8 °C 33558.6 hPa West 23.3 km/h 49.2 km/h 79 % 0 mm
14:37 -11.9 °C -13.7 °C 33545.1 hPa West 28.5 km/h 59.5 km/h 80 % 0 mm
14:42 -11.8 °C -13.7 °C 33545.1 hPa SW 23.3 km/h 59.5 km/h 80 % 0 mm
14:47 -11.8 °C -13.6 °C 33545.1 hPa SW 41.4 km/h 57 km/h 81 % 0 mm
14:52 -11.9 °C -13.6 °C 33545.1 hPa West 25.9 km/h 57 km/h 81 % 0 mm
14:57 -11.9 °C -13.6 °C 33545.1 hPa West 31.1 km/h 57 km/h 81 % 0 mm
15:02 -11.9 °C -13.6 °C 33545.1 hPa SSW 18.2 km/h 51.8 km/h 82 % 0 mm
15:12 -11.9 °C -13.7 °C 33534.9 hPa SW 33.6 km/h 51.8 km/h 81 % 0 mm
15:17 -11.9 °C -13.8 °C 33545.1 hPa West 20.8 km/h 62.1 km/h 80 % 0 mm
15:27 -12 °C -13.7 °C 33545.1 hPa WSW 20.8 km/h 64.7 km/h 81 % 0 mm
15:32 -12 °C -13.6 °C 33545.1 hPa WSW 31.1 km/h 64.7 km/h 82 % 0 mm
15:42 -12.1 °C -13.6 °C 33545.1 hPa SW 31.1 km/h 57 km/h 83 % 0 mm
15:52 -12.1 °C -13.5 °C 33534.9 hPa South 28.5 km/h 44.1 km/h 84 % 0 mm
15:57 -12.1 °C -13.5 °C 33534.9 hPa SW 46.7 km/h 46.7 km/h 84 % 0 mm
16:02 -12.1 °C -13.5 °C 33534.9 hPa West 31.1 km/h 49.2 km/h 84 % 0 mm
16:12 -12.1 °C -13.5 °C 33534.9 hPa SW 33.6 km/h 62.1 km/h 84 % 0 mm
16:22 -12.1 °C -13.7 °C 33534.9 hPa WSW 38.8 km/h 57 km/h 83 % 0 mm
16:32 -12.1 °C -13.7 °C 33534.9 hPa SSW 31.1 km/h 57 km/h 83 % 0 mm
16:52 -12.2 °C -14 °C 33511.2 hPa SW 31.1 km/h 64.7 km/h 80 % 0 mm
16:57 -12.2 °C -14 °C 33511.2 hPa WSW 44.1 km/h 64.7 km/h 80 % 0 mm
17:02 -12.2 °C -14 °C 33511.2 hPa WSW 49.2 km/h 59.5 km/h 80 % 0 mm
17:12 -12.3 °C -14 °C 33501.1 hPa SW 31.1 km/h 59.5 km/h 81 % 0 mm
17:22 -12.3 °C -14 °C 33501.1 hPa SW 23.3 km/h 54.4 km/h 81 % 0 mm
17:27 -12.3 °C -13.9 °C 33501.1 hPa SW 31.1 km/h 54.4 km/h 82 % 0 mm
17:42 -12.3 °C -13.9 °C 33501.1 hPa SW 31.1 km/h 64.7 km/h 82 % 0 mm
17:52 -12.3 °C -13.9 °C 33490.9 hPa SW 38.8 km/h 54.4 km/h 82 % 0 mm
17:57 -12.3 °C -13.8 °C 33490.9 hPa SW 33.6 km/h 54.4 km/h 83 % 0 mm
18:02 -12.3 °C -13.7 °C 33490.9 hPa SW 49.2 km/h 67.3 km/h 85 % 0 mm
18:07 -12.4 °C -13.7 °C 33490.9 hPa SW 44.1 km/h 67.3 km/h 85 % 0 mm
18:12 -12.4 °C -13.8 °C 33490.9 hPa SW 51.8 km/h 67.3 km/h 85 % 0 mm
18:27 -12.6 °C -14 °C 33490.9 hPa SW 38.8 km/h 67.3 km/h 84 % 0 mm
18:32 -12.6 °C -14.1 °C 33501.1 hPa SW 49.2 km/h 67.3 km/h 83 % 0 mm
18:42 -12.6 °C -14.2 °C 33501.1 hPa SW 49.2 km/h 72.6 km/h 82 % 0 mm
18:47 -12.6 °C -14.2 °C 33501.1 hPa SW 36.2 km/h 72.6 km/h 82 % 0 mm
18:57 -12.7 °C -14.2 °C 33501.1 hPa SW 31.1 km/h 93.2 km/h 83 % 0 mm
19:02 -12.8 °C -14.1 °C 33501.1 hPa SW 46.7 km/h 93.2 km/h 85 % 0 mm
19:12 -13 °C -14.1 °C 33490.9 hPa SW 57 km/h 82.9 km/h 87 % 0 mm
19:17 -13 °C -14.1 °C 33490.9 hPa WSW 44.1 km/h 82.9 km/h 88 % 0 mm
19:22 -13.1 °C -14.1 °C 33490.9 hPa West 41.4 km/h 69.8 km/h 88 % 0 mm
19:27 -13.1 °C -14.1 °C 33490.9 hPa SW 41.4 km/h 72.6 km/h 89 % 0 mm
19:32 -13.1 °C -14.1 °C 33490.9 hPa SW 36.2 km/h 72.6 km/h 89 % 0 mm
19:42 -13.1 °C -13.9 °C 33490.9 hPa SW 28.5 km/h 72.6 km/h 90 % 0 mm
19:52 -13.2 °C -13.9 °C 33490.9 hPa WSW 33.6 km/h 67.3 km/h 91 % 0 mm
19:57 -13.2 °C -13.9 °C 33490.9 hPa SW 41.4 km/h 64.7 km/h 91 % 0 mm
20:17 -13.2 °C -13.8 °C 33477.4 hPa SW 31.1 km/h 54.4 km/h 92 % 0 mm
20:22 -13.2 °C -13.8 °C 33477.4 hPa SW 44.1 km/h 54.4 km/h 92 % 0 mm
20:27 -13.2 °C -13.9 °C 33477.4 hPa SW 25.9 km/h 59.5 km/h 91 % 0 mm
20:37 -13.2 °C -13.8 °C 33477.4 hPa WSW 33.6 km/h 59.5 km/h 92 % 0 mm
20:47 -13.2 °C -13.8 °C 33477.4 hPa SW 15.6 km/h 51.8 km/h 92 % 0 mm
20:52 -13.2 °C -13.8 °C 33477.4 hPa SSW 36.2 km/h 51.8 km/h 92 % 0 mm
21:02 -13.2 °C -13.8 °C 33477.4 hPa SW 28.5 km/h 49.2 km/h 93 % 7.62 mm
21:07 -13.2 °C -13.8 °C 33467.2 hPa SW 25.9 km/h 49.2 km/h 93 % 7.62 mm
21:17 -13.3 °C -13.8 °C 33477.4 hPa SW 20.8 km/h 49.2 km/h 94 % 7.62 mm
21:22 -13.3 °C -13.8 °C 33477.4 hPa SSW 31.1 km/h 49.2 km/h 94 % 7.62 mm
21:27 -13.3 °C -13.8 °C 33477.4 hPa SW 28.5 km/h 46.7 km/h 94 % 12.7 mm
21:32 -13.3 °C -13.8 °C 33477.4 hPa South 28.5 km/h 46.7 km/h 94 % 12.7 mm
21:37 -13.4 °C -13.9 °C 33467.2 hPa South 15.6 km/h 46.7 km/h 94 % 12.7 mm
21:42 -13.4 °C -13.9 °C 33467.2 hPa SW 18.2 km/h 41.4 km/h 94 % 20.32 mm
22:02 -13.4 °C -13.9 °C 33443.5 hPa South 15.6 km/h 33.6 km/h 95 % 12.7 mm
22:07 -13.4 °C -13.9 °C 33433.4 hPa SSW 10.3 km/h 33.6 km/h 95 % 12.7 mm
22:12 -13.4 °C -13.9 °C 33433.4 hPa SSW 10.3 km/h 28.5 km/h 95 % 20.32 mm
22:17 -13.4 °C -13.9 °C 33453.7 hPa SW 15.6 km/h 28.5 km/h 95 % 20.32 mm
22:22 -13.4 °C -13.9 °C 33453.7 hPa SSW 15.6 km/h 28.5 km/h 95 % 12.7 mm
22:27 -13.5 °C -13.9 °C 33453.7 hPa SSW 12.9 km/h 28.5 km/h 95 % 12.7 mm
22:32 -13.5 °C -13.9 °C 33443.5 hPa SSW 7.7 km/h 28.5 km/h 95 % 12.7 mm
22:42 -13.5 °C -13.9 °C 33433.4 hPa SSE 7.7 km/h 23.3 km/h 95 % 7.62 mm
22:57 -13.4 °C -13.9 °C 33443.5 hPa SSE 15.6 km/h 28.5 km/h 95 % 7.62 mm
23:02 -13.5 °C -13.9 °C 33433.4 hPa South 15.6 km/h 28.5 km/h 95 % 7.62 mm
23:22 -13.4 °C -13.9 °C 33433.4 hPa South 28.5 km/h 38.8 km/h 94 % 0 mm
23:32 -13.4 °C -14.1 °C 33419.8 hPa South 23.3 km/h 46.7 km/h 93 % 0 mm
23:37 -13.5 °C -14.1 °C 33409.7 hPa SSW 15.6 km/h 46.7 km/h 93 % 0 mm
23:42 -13.6 °C -14.2 °C 33409.7 hPa SSE 25.9 km/h 46.7 km/h 93 % 0 mm
23:47 -13.6 °C -14.2 °C 33396.1 hPa SSW 10.3 km/h 36.2 km/h 92 % 0 mm
23:52 -13.6 °C -14.3 °C 33375.8 hPa SSE 7.7 km/h 31.1 km/h 92 % 0 mm
Meteo18
Compliments of Weather Underground - 4 mb

Script developed by  Jim McMurry - jmcmurry@mwt.net Adapted for the template by  Wim van der Kuil - Leuven-Template.eu

You find our weather info also at:

European Weather Network

Weather Underground

Equipment we use:

Weather-station
Davis Vue

Weather-program
Meteobridge

Weather-server
Raspberry PI 2 B+

Provider
1 and 1

Davis Vue

Meteobridge

Raspberry PI 2 B+

1 and 1